sensor_id;sensor_type;location;lat;lon;timestamp;temperature;humidity
37285;DHT22;23172;53.550;9.964;2023-05-24T00:02:44;13.70;68.50
37285;DHT22;23172;53.550;9.964;2023-05-24T00:07:45;13.70;69.50
37285;DHT22;23172;53.550;9.964;2023-05-24T00:12:49;13.70;69.00
37285;DHT22;23172;53.550;9.964;2023-05-24T00:17:50;13.70;69.20
37285;DHT22;23172;53.550;9.964;2023-05-24T05:16:04;13.80;69.50
37285;DHT22;23172;53.550;9.964;2023-05-24T05:21:06;13.90;91.90
37285;DHT22;23172;53.550;9.964;2023-05-24T05:26:07;13.90;91.90
37285;DHT22;23172;53.550;9.964;2023-05-24T05:31:11;14.00;92.10
37285;DHT22;23172;53.550;9.964;2023-05-24T05:36:13;14.00;92.20
37285;DHT22;23172;53.550;9.964;2023-05-24T05:41:15;14.00;92.50
37285;DHT22;23172;53.550;9.964;2023-05-24T05:46:18;14.10;92.60
37285;DHT22;23172;53.550;9.964;2023-05-24T05:51:21;14.30;92.50
37285;DHT22;23172;53.550;9.964;2023-05-24T05:56:23;14.30;92.40
37285;DHT22;23172;53.550;9.964;2023-05-24T06:01:26;14.40;92.40
37285;DHT22;23172;53.550;9.964;2023-05-24T06:06:28;14.40;92.50
37285;DHT22;23172;53.550;9.964;2023-05-24T06:11:30;14.40;92.50
37285;DHT22;23172;53.550;9.964;2023-05-24T06:16:34;14.40;92.50
37285;DHT22;23172;53.550;9.964;2023-05-24T06:21:41;14.40;92.50
37285;DHT22;23172;53.550;9.964;2023-05-24T06:26:48;14.40;92.60
37285;DHT22;23172;53.550;9.964;2023-05-24T06:31:52;14.40;92.70
37285;DHT22;23172;53.550;9.964;2023-05-24T06:36:54;14.60;92.60
37285;DHT22;23172;53.550;9.964;2023-05-24T06:41:56;14.60;92.60
37285;DHT22;23172;53.550;9.964;2023-05-24T06:46:59;14.70;92.70
37285;DHT22;23172;53.550;9.964;2023-05-24T06:52:01;14.80;92.70
37285;DHT22;23172;53.550;9.964;2023-05-24T06:57:04;14.90;92.60
37285;DHT22;23172;53.550;9.964;2023-05-24T07:02:07;15.10;92.40
37285;DHT22;23172;53.550;9.964;2023-05-24T07:07:09;15.40;92.30
37285;DHT22;23172;53.550;9.964;2023-05-24T07:12:12;15.70;92.00
37285;DHT22;23172;53.550;9.964;2023-05-24T07:17:15;15.80;91.60
37285;DHT22;23172;53.550;9.964;2023-05-24T07:22:17;15.80;91.30
37285;DHT22;23172;53.550;9.964;2023-05-24T07:27:19;15.60;91.30
37285;DHT22;23172;53.550;9.964;2023-05-24T07:32:23;15.50;91.00
37285;DHT22;23172;53.550;9.964;2023-05-24T07:37:28;15.40;91.10
37285;DHT22;23172;53.550;9.964;2023-05-24T07:42:30;15.40;91.20
37285;DHT22;23172;53.550;9.964;2023-05-24T07:47:33;15.70;90.90
37285;DHT22;23172;53.550;9.964;2023-05-24T07:52:35;15.90;90.50
37285;DHT22;23172;53.550;9.964;2023-05-24T07:57:38;16.00;90.30
37285;DHT22;23172;53.550;9.964;2023-05-24T08:02:41;16.10;89.80
37285;DHT22;23172;53.550;9.964;2023-05-24T08:07:45;16.10;89.40
37285;DHT22;23172;53.550;9.964;2023-05-24T08:12:47;16.30;89.00
37285;DHT22;23172;53.550;9.964;2023-05-24T08:17:52;16.40;88.60
37285;DHT22;23172;53.550;9.964;2023-05-24T08:22:54;16.50;87.90
37285;DHT22;23172;53.550;9.964;2023-05-24T08:27:56;16.60;87.00
37285;DHT22;23172;53.550;9.964;2023-05-24T08:32:59;16.70;86.10
37285;DHT22;23172;53.550;9.964;2023-05-24T08:38:00;17.00;86.60
37285;DHT22;23172;53.550;9.964;2023-05-24T08:43:02;17.20;84.00
37285;DHT22;23172;53.550;9.964;2023-05-24T08:48:12;17.20;83.20
37285;DHT22;23172;53.550;9.964;2023-05-24T08:53:15;16.90;83.20
37285;DHT22;23172;53.550;9.964;2023-05-24T08:58:17;16.70;83.00
37285;DHT22;23172;53.550;9.964;2023-05-24T09:03:20;16.50;83.90
37285;DHT22;23172;53.550;9.964;2023-05-24T09:08:23;16.40;85.60
37285;DHT22;23172;53.550;9.964;2023-05-24T09:13:26;16.30;87.50
37285;DHT22;23172;53.550;9.964;2023-05-24T09:43:47;16.20;88.80
37285;DHT22;23172;53.550;9.964;2023-05-24T09:48:58;20.90;62.10
37285;DHT22;23172;53.550;9.964;2023-05-24T09:54:00;20.60;61.30
37285;DHT22;23172;53.550;9.964;2023-05-24T10:09:13;20.30;62.00
37285;DHT22;23172;53.550;9.964;2023-05-24T10:14:16;19.80;61.40
37285;DHT22;23172;53.550;9.964;2023-05-24T10:34:33;19.50;61.20
37285;DHT22;23172;53.550;9.964;2023-05-24T10:39:36;20.00;59.00
37285;DHT22;23172;53.550;9.964;2023-05-24T10:44:37;19.70;59.00
37285;DHT22;23172;53.550;9.964;2023-05-24T10:49:48;19.40;59.50
37285;DHT22;23172;53.550;9.964;2023-05-24T10:55:01;19.10;59.90
37285;DHT22;23172;53.550;9.964;2023-05-24T11:00:26;18.90;60.90
37285;DHT22;23172;53.550;9.964;2023-05-24T11:05:49;18.90;61.20
37285;DHT22;23172;53.550;9.964;2023-05-24T11:11:01;19.20;60.80
37285;DHT22;23172;53.550;9.964;2023-05-24T11:16:05;20.00;59.40
37285;DHT22;23172;53.550;9.964;2023-05-24T11:21:09;20.80;57.80
37285;DHT22;23172;53.550;9.964;2023-05-24T11:26:11;21.10;56.60
37285;DHT22;23172;53.550;9.964;2023-05-24T11:31:13;20.90;56.30
37285;DHT22;23172;53.550;9.964;2023-05-24T11:36:16;20.60;55.80
37285;DHT22;23172;53.550;9.964;2023-05-24T11:41:21;20.40;56.30
37285;DHT22;23172;53.550;9.964;2023-05-24T11:46:23;20.40;57.30
37285;DHT22;23172;53.550;9.964;2023-05-24T11:51:28;20.10;57.90
37285;DHT22;23172;53.550;9.964;2023-05-24T11:56:30;19.70;58.60
37285;DHT22;23172;53.550;9.964;2023-05-24T12:01:32;19.20;59.30
37285;DHT22;23172;53.550;9.964;2023-05-24T12:06:37;19.00;59.40
37285;DHT22;23172;53.550;9.964;2023-05-24T12:11:41;18.70;59.70
37285;DHT22;23172;53.550;9.964;2023-05-24T12:16:43;18.60;60.20
37285;DHT22;23172;53.550;9.964;2023-05-24T12:21:47;18.60;60.10
37285;DHT22;23172;53.550;9.964;2023-05-24T12:26:50;18.80;60.10
37285;DHT22;23172;53.550;9.964;2023-05-24T12:31:53;19.10;59.60
37285;DHT22;23172;53.550;9.964;2023-05-24T12:36:56;19.40;59.20
37285;DHT22;23172;53.550;9.964;2023-05-24T12:41:58;19.50;58.80
37285;DHT22;23172;53.550;9.964;2023-05-24T12:47:04;19.50;58.70
37285;DHT22;23172;53.550;9.964;2023-05-24T12:52:08;19.40;58.80
37285;DHT22;23172;53.550;9.964;2023-05-24T12:57:11;19.30;59.50
37285;DHT22;23172;53.550;9.964;2023-05-24T13:02:13;19.30;59.70
37285;DHT22;23172;53.550;9.964;2023-05-24T13:07:16;19.40;60.20
37285;DHT22;23172;53.550;9.964;2023-05-24T13:12:18;19.60;60.40
37285;DHT22;23172;53.550;9.964;2023-05-24T13:17:20;19.70;59.60
37285;DHT22;23172;53.550;9.964;2023-05-24T13:22:23;19.80;59.00
37285;DHT22;23172;53.550;9.964;2023-05-24T13:27:25;20.70;57.70
37285;DHT22;23172;53.550;9.964;2023-05-24T13:32:27;21.10;56.00
37285;DHT22;23172;53.550;9.964;2023-05-24T13:37:30;21.10;55.00
37285;DHT22;23172;53.550;9.964;2023-05-24T13:42:32;20.90;54.70
37285;DHT22;23172;53.550;9.964;2023-05-24T13:47:34;20.70;54.80
37285;DHT22;23172;53.550;9.964;2023-05-24T13:52:37;20.50;55.30
37285;DHT22;23172;53.550;9.964;2023-05-24T13:57:39;20.40;55.40
37285;DHT22;23172;53.550;9.964;2023-05-24T14:02:41;20.40;55.60
37285;DHT22;23172;53.550;9.964;2023-05-24T14:07:45;20.40;55.20
37285;DHT22;23172;53.550;9.964;2023-05-24T14:12:47;20.30;55.20
37285;DHT22;23172;53.550;9.964;2023-05-24T14:17:49;20.30;56.60
37285;DHT22;23172;53.550;9.964;2023-05-24T14:22:52;20.20;56.70
37285;DHT22;23172;53.550;9.964;2023-05-24T14:27:54;20.00;57.70
37285;DHT22;23172;53.550;9.964;2023-05-24T14:32:56;19.90;58.40
37285;DHT22;23172;53.550;9.964;2023-05-24T14:37:59;19.80;58.70
37285;DHT22;23172;53.550;9.964;2023-05-24T14:43:01;20.00;59.00
37285;DHT22;23172;53.550;9.964;2023-05-24T14:48:03;20.20;58.80
37285;DHT22;23172;53.550;9.964;2023-05-24T14:53:08;20.10;59.00
37285;DHT22;23172;53.550;9.964;2023-05-24T14:58:11;20.50;59.30
37285;DHT22;23172;53.550;9.964;2023-05-24T15:03:13;21.10;58.30
37285;DHT22;23172;53.550;9.964;2023-05-24T15:08:16;21.50;57.40
37285;DHT22;23172;53.550;9.964;2023-05-24T15:13:18;21.40;57.20
37285;DHT22;23172;53.550;9.964;2023-05-24T15:18:22;21.30;57.00
37285;DHT22;23172;53.550;9.964;2023-05-24T15:23:26;21.20;56.70
37285;DHT22;23172;53.550;9.964;2023-05-24T15:28:28;21.20;56.60
37285;DHT22;23172;53.550;9.964;2023-05-24T15:33:30;21.10;56.60
37285;DHT22;23172;53.550;9.964;2023-05-24T15:38:34;21.00;56.90
37285;DHT22;23172;53.550;9.964;2023-05-24T15:43:38;21.10;57.00
37285;DHT22;23172;53.550;9.964;2023-05-24T15:48:40;21.10;57.00
37285;DHT22;23172;53.550;9.964;2023-05-24T15:53:43;21.10;56.60
37285;DHT22;23172;53.550;9.964;2023-05-24T15:58:45;21.00;56.80
37285;DHT22;23172;53.550;9.964;2023-05-24T16:03:46;21.00;57.00
37285;DHT22;23172;53.550;9.964;2023-05-24T16:08:51;20.90;57.20
37285;DHT22;23172;53.550;9.964;2023-05-24T16:13:53;20.80;57.30
37285;DHT22;23172;53.550;9.964;2023-05-24T16:18:56;20.60;57.50
37285;DHT22;23172;53.550;9.964;2023-05-24T16:23:59;20.40;57.80
37285;DHT22;23172;53.550;9.964;2023-05-24T16:29:02;20.30;58.10
37285;DHT22;23172;53.550;9.964;2023-05-24T16:34:06;20.20;58.10
37285;DHT22;23172;53.550;9.964;2023-05-24T16:39:10;20.10;58.30
37285;DHT22;23172;53.550;9.964;2023-05-24T16:44:12;20.10;58.50
37285;DHT22;23172;53.550;9.964;2023-05-24T16:49:17;20.10;58.70
37285;DHT22;23172;53.550;9.964;2023-05-24T16:54:20;20.00;58.90
37285;DHT22;23172;53.550;9.964;2023-05-24T16:59:22;20.00;59.10
37285;DHT22;23172;53.550;9.964;2023-05-24T17:04:23;20.00;59.30
37285;DHT22;23172;53.550;9.964;2023-05-24T17:09:27;19.80;59.50
37285;DHT22;23172;53.550;9.964;2023-05-24T17:14:29;19.60;59.70
37285;DHT22;23172;53.550;9.964;2023-05-24T17:19:31;19.50;59.90
37285;DHT22;23172;53.550;9.964;2023-05-24T17:24:34;19.30;60.50
37285;DHT22;23172;53.550;9.964;2023-05-24T17:29:36;19.20;61.00
37285;DHT22;23172;53.550;9.964;2023-05-24T17:34:38;19.00;61.90
37285;DHT22;23172;53.550;9.964;2023-05-24T17:39:41;18.90;62.30
37285;DHT22;23172;53.550;9.964;2023-05-24T17:44:43;18.80;62.90
37285;DHT22;23172;53.550;9.964;2023-05-24T17:49:45;18.60;63.90
37285;DHT22;23172;53.550;9.964;2023-05-24T17:54:48;18.50;64.30
37285;DHT22;23172;53.550;9.964;2023-05-24T17:59:50;18.40;64.80
37285;DHT22;23172;53.550;9.964;2023-05-24T18:04:52;18.40;65.30
37285;DHT22;23172;53.550;9.964;2023-05-24T18:09:56;18.30;66.10
37285;DHT22;23172;53.550;9.964;2023-05-24T18:14:58;18.20;66.50
37285;DHT22;23172;53.550;9.964;2023-05-24T18:19:59;18.10;66.70
37285;DHT22;23172;53.550;9.964;2023-05-24T18:25:03;18.00;67.00
37285;DHT22;23172;53.550;9.964;2023-05-24T18:30:06;17.90;67.80
37285;DHT22;23172;53.550;9.964;2023-05-24T18:35:10;17.70;68.40
37285;DHT22;23172;53.550;9.964;2023-05-24T18:40:13;17.60;69.20
37285;DHT22;23172;53.550;9.964;2023-05-24T18:45:16;17.50;69.90
37285;DHT22;23172;53.550;9.964;2023-05-24T18:50:17;17.30;70.60
37285;DHT22;23172;53.550;9.964;2023-05-24T18:55:23;17.20;71.30
37285;DHT22;23172;53.550;9.964;2023-05-24T19:00:25;17.10;71.80
37285;DHT22;23172;53.550;9.964;2023-05-24T19:05:27;16.90;72.80
37285;DHT22;23172;53.550;9.964;2023-05-24T19:10:30;16.60;74.00
37285;DHT22;23172;53.550;9.964;2023-05-24T19:15:34;16.50;74.80
37285;DHT22;23172;53.550;9.964;2023-05-24T19:20:36;16.30;75.90
37285;DHT22;23172;53.550;9.964;2023-05-24T19:25:39;16.10;76.90
37285;DHT22;23172;53.550;9.964;2023-05-24T19:30:43;15.90;77.70
37285;DHT22;23172;53.550;9.964;2023-05-24T19:35:44;15.70;78.60
37285;DHT22;23172;53.550;9.964;2023-05-24T19:40:48;15.60;79.40
37285;DHT22;23172;53.550;9.964;2023-05-24T19:45:50;15.50;80.10
37285;DHT22;23172;53.550;9.964;2023-05-24T19:50:53;15.50;80.90
37285;DHT22;23172;53.550;9.964;2023-05-24T19:55:56;15.40;82.10
37285;DHT22;23172;53.550;9.964;2023-05-24T20:00:58;15.50;82.10
37285;DHT22;23172;53.550;9.964;2023-05-24T20:06:00;15.50;82.50
37285;DHT22;23172;53.550;9.964;2023-05-24T20:11:04;15.30;83.50
37285;DHT22;23172;53.550;9.964;2023-05-24T20:16:06;15.20;84.40
37285;DHT22;23172;53.550;9.964;2023-05-24T20:21:08;15.10;85.00
37285;DHT22;23172;53.550;9.964;2023-05-24T20:26:12;15.10;85.70
37285;DHT22;23172;53.550;9.964;2023-05-24T20:31:14;15.10;85.90
37285;DHT22;23172;53.550;9.964;2023-05-24T20:36:16;15.00;86.80
37285;DHT22;23172;53.550;9.964;2023-05-24T20:41:19;14.80;87.70
37285;DHT22;23172;53.550;9.964;2023-05-24T20:46:21;14.80;88.10
37285;DHT22;23172;53.550;9.964;2023-05-24T20:51:23;14.80;88.90
37285;DHT22;23172;53.550;9.964;2023-05-24T20:56:27;14.70;89.30
37285;DHT22;23172;53.550;9.964;2023-05-24T21:01:29;14.60;90.00
37285;DHT22;23172;53.550;9.964;2023-05-24T21:06:30;14.60;90.20
37285;DHT22;23172;53.550;9.964;2023-05-24T21:11:34;14.60;90.50
37285;DHT22;23172;53.550;9.964;2023-05-24T21:16:36;14.70;90.50
37285;DHT22;23172;53.550;9.964;2023-05-24T21:21:37;14.70;90.60
37285;DHT22;23172;53.550;9.964;2023-05-24T21:26:41;14.70;90.80
37285;DHT22;23172;53.550;9.964;2023-05-24T21:31:43;14.60;91.10
37285;DHT22;23172;53.550;9.964;2023-05-24T21:36:44;14.60;91.20
37285;DHT22;23172;53.550;9.964;2023-05-24T21:41:48;14.70;91.20
37285;DHT22;23172;53.550;9.964;2023-05-24T21:46:50;14.70;91.30
37285;DHT22;23172;53.550;9.964;2023-05-24T21:51:52;14.60;91.80
37285;DHT22;23172;53.550;9.964;2023-05-24T21:56:55;14.70;91.40
37285;DHT22;23172;53.550;9.964;2023-05-24T22:01:57;14.60;91.40
37285;DHT22;23172;53.550;9.964;2023-05-24T22:06:58;14.60;91.50
37285;DHT22;23172;53.550;9.964;2023-05-24T22:12:02;14.60;91.40
37285;DHT22;23172;53.550;9.964;2023-05-24T22:17:04;14.60;91.50
37285;DHT22;23172;53.550;9.964;2023-05-24T22:22:06;14.60;91.40
37285;DHT22;23172;53.550;9.964;2023-05-24T22:27:09;14.50;91.60
37285;DHT22;23172;53.550;9.964;2023-05-24T22:32:13;14.50;91.70
37285;DHT22;23172;53.550;9.964;2023-05-24T22:37:15;14.50;91.70
37285;DHT22;23172;53.550;9.964;2023-05-24T22:42:18;14.50;91.70
37285;DHT22;23172;53.550;9.964;2023-05-24T22:47:20;14.50;91.60
37285;DHT22;23172;53.550;9.964;2023-05-24T22:52:23;14.50;91.50
37285;DHT22;23172;53.550;9.964;2023-05-24T22:57:27;14.30;91.50
37285;DHT22;23172;53.550;9.964;2023-05-24T23:02:29;14.20;91.70
37285;DHT22;23172;53.550;9.964;2023-05-24T23:07:31;14.30;91.70
37285;DHT22;23172;53.550;9.964;2023-05-24T23:12:34;14.30;91.60
37285;DHT22;23172;53.550;9.964;2023-05-24T23:17:36;14.30;91.50
37285;DHT22;23172;53.550;9.964;2023-05-24T23:22:38;14.20;91.50
37285;DHT22;23172;53.550;9.964;2023-05-24T23:27:41;14.20;91.50
37285;DHT22;23172;53.550;9.964;2023-05-24T23:32:43;14.20;91.60
37285;DHT22;23172;53.550;9.964;2023-05-24T23:37:45;14.10;91.70
37285;DHT22;23172;53.550;9.964;2023-05-24T23:42:48;14.10;91.70
37285;DHT22;23172;53.550;9.964;2023-05-24T23:47:50;14.10;91.80
37285;DHT22;23172;53.550;9.964;2023-05-24T23:52:52;14.00;91.90
37285;DHT22;23172;53.550;9.964;2023-05-24T23:57:55;14.00;92.10
